Time;durP1;ratioP1;P1;durP2;ratioP2;P2;SDS_P1;SDS_P2;PMS_P1;PMS_P2;Temp;Humidity;BMP_temperature;BMP_pressure;BME280_temperature;BME280_humidity;BME280_pressure;Samples;Min_cycle;Max_cycle;Signal;HPM_P1;HPM_P2
2022/03/21 00:01:29;;;;;;;2.13;1.60;;;;;;;;;;5047703;28;20025;-78
2022/03/21 00:03:55;;;;;;;2.83;1.95;;;;;;;;;;5051092;28;20025;-77
2022/03/21 00:06:23;;;;;;;1.63;1.38;;;;;;;;;;5052368;28;20107;-77
2022/03/21 00:08:48;;;;;;;10.25;2.42;;;;;;;;;;5032789;28;20119;-77
2022/03/21 00:11:14;;;;;;;3.08;2.72;;;;;;;;;;5045942;28;20104;-77
2022/03/21 00:13:39;;;;;;;2.67;2.10;;;;;;;;;;5040653;28;20026;-78
2022/03/21 00:16:12;;;;;;;3.58;2.20;;;;;;;;;;5047308;28;20087;-77
2022/03/21 00:18:38;;;;;;;2.17;1.73;;;;;;;;;;5049622;28;20041;-77
2022/03/21 00:21:03;;;;;;;3.13;1.10;;;;;;;;;;5046997;28;20091;-75
2022/03/21 00:23:30;;;;;;;1.13;1.02;;;;;;;;;;5052662;28;20028;-76
2022/03/21 00:25:55;;;;;;;1.10;1.02;;;;;;;;;;5051527;28;20092;-77
2022/03/21 00:28:20;;;;;;;1.45;1.35;;;;;;;;;;5053132;28;20025;-75
2022/03/21 00:30:47;;;;;;;2.20;2.08;;;;;;;;;;5052834;28;20035;-77
2022/03/21 00:33:13;;;;;;;2.30;1.13;;;;;;;;;;5053152;28;20618;-77
2022/03/21 00:35:45;;;;;;;3.72;2.03;;;;;;;;;;5053476;28;20465;-77
2022/03/21 00:38:17;;;;;;;1.50;1.37;;;;;;;;;;5056536;28;20043;-77
2022/03/21 00:40:47;;;;;;;0.95;0.95;;;;;;;;;;5054903;28;20363;-76
2022/03/21 00:43:17;;;;;;;0.80;0.80;;;;;;;;;;5056632;28;20029;-76
2022/03/21 00:45:42;;;;;;;1.27;1.17;;;;;;;;;;5056505;28;20383;-76
2022/03/21 00:48:08;;;;;;;1.35;1.27;;;;;;;;;;5055314;28;20108;-77
2022/03/21 00:50:35;;;;;;;1.83;1.70;;;;;;;;;;5035864;28;20029;-76
2022/03/21 00:53:01;;;;;;;0.68;0.65;;;;;;;;;;5050536;28;20038;-76
2022/03/21 00:55:28;;;;;;;0.50;0.50;;;;;;;;;;5055491;28;20017;-76
2022/03/21 00:57:54;;;;;;;1.38;1.25;;;;;;;;;;5056202;28;20029;-76
2022/03/21 01:00:24;;;;;;;2.25;1.33;;;;;;;;;;5054985;28;20339;-76
2022/03/21 01:02:49;;;;;;;2.92;2.25;;;;;;;;;;5050583;28;20029;-76
2022/03/21 01:05:14;;;;;;;0.55;0.55;;;;;;;;;;5056005;28;20050;-76
2022/03/21 01:07:46;;;;;;;1.52;1.05;;;;;;;;;;5056250;28;20036;-76
2022/03/21 01:10:14;;;;;;;0.73;0.73;;;;;;;;;;5055819;28;20028;-76
2022/03/21 01:12:41;;;;;;;1.05;1.05;;;;;;;;;;5055065;28;20385;-76
2022/03/21 01:15:07;;;;;;;1.67;1.55;;;;;;;;;;5038164;28;20016;-77
2022/03/21 01:17:33;;;;;;;3.45;1.42;;;;;;;;;;5055128;28;20039;-77
2022/03/21 01:20:04;;;;;;;6.15;1.65;;;;;;;;;;5052051;28;20029;-76
2022/03/21 01:22:29;;;;;;;3.50;2.05;;;;;;;;;;5056041;28;20355;-76
2022/03/21 01:24:57;;;;;;;2.70;1.45;;;;;;;;;;5055443;28;20035;-76
2022/03/21 01:27:25;;;;;;;3.17;1.17;;;;;;;;;;5054887;28;20028;-76
2022/03/21 01:29:50;;;;;;;10.02;1.55;;;;;;;;;;5054819;28;20029;-75
2022/03/21 01:32:16;;;;;;;2.22;1.67;;;;;;;;;;5055602;28;20105;-76
2022/03/21 01:34:41;;;;;;;1.90;1.75;;;;;;;;;;5055687;28;20499;-76
2022/03/21 01:37:07;;;;;;;1.92;1.77;;;;;;;;;;5055784;28;20061;-76
2022/03/21 01:39:34;;;;;;;2.67;1.42;;;;;;;;;;5055372;28;20586;-75
2022/03/21 01:42:00;;;;;;;1.98;1.77;;;;;;;;;;5054794;28;20104;-75
2022/03/21 01:44:27;;;;;;;2.97;1.85;;;;;;;;;;5055357;28;20228;-76
2022/03/21 01:46:53;;;;;;;3.50;1.88;;;;;;;;;;5055218;28;20021;-76
2022/03/21 01:49:18;;;;;;;2.33;2.13;;;;;;;;;;5051945;28;20334;-76
2022/03/21 01:51:46;;;;;;;1.63;1.35;;;;;;;;;;5054660;28;20056;-76
2022/03/21 01:56:56;;;;;;;5.88;2.00;;;;;;;;;;5055086;28;20040;-76
2022/03/21 01:59:21;;;;;;;1.58;1.48;;;;;;;;;;5055312;28;20033;-76
2022/03/21 02:01:50;;;;;;;1.65;1.55;;;;;;;;;;5037726;28;20044;-76
2022/03/21 02:04:18;;;;;;;2.45;2.33;;;;;;;;;;5054028;28;20033;-76
2022/03/21 02:06:44;;;;;;;4.47;2.75;;;;;;;;;;5054117;28;20031;-76
2022/03/21 02:09:10;;;;;;;7.03;2.83;;;;;;;;;;5037752;28;20029;-76
2022/03/21 02:11:36;;;;;;;2.28;1.80;;;;;;;;;;5054971;28;20021;-76
2022/03/21 02:14:04;;;;;;;1.63;1.52;;;;;;;;;;5053952;28;20017;-76
2022/03/21 02:16:30;;;;;;;0.70;0.70;;;;;;;;;;5053508;28;20029;-76
2022/03/21 02:19:00;;;;;;;2.42;2.22;;;;;;;;;;5054449;28;20129;-76
2022/03/21 02:22:00;;;;;;;1.42;1.33;;;;;;;;;;5053701;28;20446;-76
2022/03/21 02:25:13;;;;;;;1.58;1.17;;;;;;;;;;5027233;28;20044;-77
2022/03/21 02:27:44;;;;;;;1.15;0.88;;;;;;;;;;5006695;28;20455;-77
2022/03/21 02:30:10;;;;;;;2.70;2.50;;;;;;;;;;5070105;28;20033;-78
2022/03/21 02:32:35;;;;;;;2.47;1.88;;;;;;;;;;5053804;28;20043;-77
2022/03/21 02:35:02;;;;;;;4.28;1.70;;;;;;;;;;5054206;28;20029;-77
2022/03/21 02:37:27;;;;;;;1.35;1.25;;;;;;;;;;5053647;28;20139;-77
2022/03/21 02:39:54;;;;;;;1.17;1.15;;;;;;;;;;5053691;28;20032;-78
2022/03/21 02:42:19;;;;;;;1.70;1.25;;;;;;;;;;5053355;28;20446;-77
2022/03/21 02:44:47;;;;;;;1.67;1.50;;;;;;;;;;5054314;28;20029;-77
2022/03/21 02:47:14;;;;;;;1.75;1.33;;;;;;;;;;5054304;28;20092;-77
2022/03/21 02:49:42;;;;;;;4.90;2.53;;;;;;;;;;5053309;28;20025;-77
2022/03/21 02:52:10;;;;;;;2.65;2.45;;;;;;;;;;5052915;28;20086;-77
2022/03/21 02:54:37;;;;;;;3.40;2.78;;;;;;;;;;5052163;28;20020;-77
2022/03/21 02:57:03;;;;;;;3.40;2.67;;;;;;;;;;5053199;28;20437;-77
2022/03/21 02:59:28;;;;;;;1.63;1.52;;;;;;;;;;5054321;28;20052;-77
2022/03/21 03:01:54;;;;;;;2.38;2.08;;;;;;;;;;5052029;28;20028;-78
2022/03/21 03:04:25;;;;;;;3.22;2.13;;;;;;;;;;5053966;28;20025;-77
2022/03/21 03:06:51;;;;;;;1.83;1.73;;;;;;;;;;5051038;28;20029;-77
2022/03/21 03:09:17;;;;;;;3.35;2.03;;;;;;;;;;5053450;28;20119;-77
2022/03/21 03:11:47;;;;;;;2.05;1.27;;;;;;;;;;5053428;28;20028;-77
2022/03/21 03:14:12;;;;;;;2.95;2.25;;;;;;;;;;5053113;28;20021;-76
2022/03/21 03:16:40;;;;;;;1.45;1.38;;;;;;;;;;5052849;28;20021;-77
2022/03/21 03:19:05;;;;;;;2.33;1.60;;;;;;;;;;5055380;28;20032;-77
2022/03/21 03:21:35;;;;;;;3.35;2.22;;;;;;;;;;5053107;28;20040;-77
2022/03/21 03:24:01;;;;;;;1.25;1.08;;;;;;;;;;5052658;28;20036;-77
2022/03/21 03:26:26;;;;;;;2.08;1.98;;;;;;;;;;5054032;28;20071;-77
2022/03/21 03:28:51;;;;;;;3.13;2.20;;;;;;;;;;5053816;28;20064;-77
2022/03/21 03:31:20;;;;;;;0.90;0.90;;;;;;;;;;5053424;28;20040;-75
2022/03/21 03:33:46;;;;;;;2.60;2.40;;;;;;;;;;5051729;28;20120;-76
2022/03/21 03:36:16;;;;;;;3.20;2.60;;;;;;;;;;5052849;28;20043;-78
2022/03/21 03:38:45;;;;;;;4.45;3.50;;;;;;;;;;5053569;28;20362;-78
2022/03/21 03:41:11;;;;;;;4.65;2.17;;;;;;;;;;5053471;28;20338;-78
2022/03/21 03:43:37;;;;;;;2.22;2.08;;;;;;;;;;5053649;28;20431;-76
2022/03/21 03:46:05;;;;;;;4.07;2.45;;;;;;;;;;5053559;28;20048;-77
2022/03/21 03:48:30;;;;;;;3.60;1.48;;;;;;;;;;5052569;28;20087;-78
2022/03/21 03:50:56;;;;;;;1.50;1.45;;;;;;;;;;5051696;28;20572;-76
2022/03/21 03:53:22;;;;;;;2.95;2.38;;;;;;;;;;5051709;28;20146;-77
2022/03/21 03:55:51;;;;;;;1.48;1.33;;;;;;;;;;5053571;28;20035;-77
2022/03/21 03:58:18;;;;;;;4.22;3.92;;;;;;;;;;5052447;28;20104;-77
2022/03/21 04:00:46;;;;;;;3.17;2.88;;;;;;;;;;5053195;28;20024;-77
2022/03/21 04:05:58;;;;;;;2.05;1.90;;;;;;;;;;5053374;28;20584;-77
2022/03/21 04:08:24;;;;;;;3.30;3.08;;;;;;;;;;5053431;28;20063;-77
2022/03/21 04:10:49;;;;;;;5.63;1.85;;;;;;;;;;5053973;28;20037;-77
2022/03/21 04:13:14;;;;;;;1.95;1.83;;;;;;;;;;5057506;28;20021;-77
2022/03/21 04:15:40;;;;;;;7.82;3.47;;;;;;;;;;5056242;28;20013;-77
2022/03/21 04:18:05;;;;;;;2.70;2.50;;;;;;;;;;5057318;28;20472;-77
2022/03/21 04:20:37;;;;;;;2.20;2.00;;;;;;;;;;5053637;28;20466;-77
2022/03/21 04:23:07;;;;;;;10.68;3.17;;;;;;;;;;5051327;28;20029;-77
2022/03/21 04:25:35;;;;;;;4.78;1.80;;;;;;;;;;5057154;28;20029;-76
2022/03/21 04:28:09;;;;;;;3.97;3.08;;;;;;;;;;5057084;28;20060;-76
2022/03/21 04:30:35;;;;;;;3.28;2.97;;;;;;;;;;5056455;28;20025;-78
2022/03/21 04:33:00;;;;;;;2.38;1.63;;;;;;;;;;5039578;28;20059;-78
2022/03/21 04:35:26;;;;;;;1.65;1.55;;;;;;;;;;5057094;28;20025;-78
2022/03/21 04:37:55;;;;;;;2.00;1.65;;;;;;;;;;5058723;28;20048;-78
2022/03/21 04:40:22;;;;;;;2.65;2.45;;;;;;;;;;5060248;28;20029;-78
2022/03/21 04:42:48;;;;;;;2.40;2.22;;;;;;;;;;5055924;28;20180;-79
2022/03/21 04:45:16;;;;;;;2.50;2.30;;;;;;;;;;5056495;28;20321;-76
2022/03/21 04:47:45;;;;;;;4.18;3.67;;;;;;;;;;5056905;28;20476;-78
2022/03/21 04:50:11;;;;;;;3.25;2.85;;;;;;;;;;5049681;28;20028;-77
2022/03/21 04:52:39;;;;;;;3.95;3.00;;;;;;;;;;5056619;28;20056;-76
2022/03/21 04:55:08;;;;;;;3.70;2.63;;;;;;;;;;5056730;28;20071;-77
2022/03/21 04:57:35;;;;;;;3.78;2.30;;;;;;;;;;5056584;28;20116;-77
2022/03/21 05:00:06;;;;;;;1.90;1.42;;;;;;;;;;5055217;28;20095;-77
2022/03/21 05:02:31;;;;;;;1.88;1.73;;;;;;;;;;5054160;28;20083;-77
2022/03/21 05:04:59;;;;;;;1.85;1.75;;;;;;;;;;5054087;28;20114;-78
2022/03/21 05:07:27;;;;;;;2.42;2.33;;;;;;;;;;5056324;28;20365;-78
2022/03/21 05:09:55;;;;;;;2.65;2.45;;;;;;;;;;5054934;28;20036;-77
2022/03/21 05:12:20;;;;;;;3.75;3.45;;;;;;;;;;5056317;28;20047;-77
2022/03/21 05:14:46;;;;;;;1.23;1.17;;;;;;;;;;5052743;28;20486;-78
2022/03/21 05:17:17;;;;;;;1.85;1.40;;;;;;;;;;5062746;28;20021;-78
2022/03/21 05:19:44;;;;;;;2.33;2.13;;;;;;;;;;5059678;28;20032;-78
2022/03/21 05:22:09;;;;;;;3.83;3.40;;;;;;;;;;5055384;28;20025;-77
2022/03/21 05:35:54;;;;;;;1.38;1.27;;;;;;;;;;5056037;28;20039;-80
2022/03/21 05:35:55;;;;;;;1.73;1.60;;;;;;;;;;5048055;28;20017;-78
2022/03/21 05:38:25;;;;;;;3.85;1.65;;;;;;;;;;5056195;28;20028;-76
2022/03/21 05:40:56;;;;;;;4.00;2.50;;;;;;;;;;5048124;28;20029;-79
2022/03/21 05:43:24;;;;;;;2.25;2.05;;;;;;;;;;5056523;28;20052;-79
2022/03/21 05:45:53;;;;;;;3.22;2.03;;;;;;;;;;5052560;28;20452;-79
2022/03/21 05:51:10;;;;;;;5.72;2.60;;;;;;;;;;5046022;28;20087;-79
2022/03/21 05:53:40;;;;;;;3.50;1.45;;;;;;;;;;5054310;28;20392;-79
2022/03/21 05:56:11;;;;;;;1.42;1.35;;;;;;;;;;5054460;28;20036;-78
2022/03/21 05:58:36;;;;;;;2.20;2.05;;;;;;;;;;5053292;28;20086;-79
2022/03/21 06:01:01;;;;;;;1.60;1.52;;;;;;;;;;5048108;28;20029;-79
2022/03/21 06:03:29;;;;;;;1.25;1.13;;;;;;;;;;5053602;28;20423;-78
2022/03/21 06:05:59;;;;;;;1.58;1.48;;;;;;;;;;5054269;28;20450;-79
2022/03/21 06:08:24;;;;;;;1.73;1.63;;;;;;;;;;5049893;28;20107;-79
2022/03/21 06:10:51;;;;;;;3.90;2.13;;;;;;;;;;5054996;28;20160;-79
2022/03/21 06:13:19;;;;;;;3.15;2.88;;;;;;;;;;5053640;28;20039;-79
2022/03/21 06:15:46;;;;;;;4.15;2.97;;;;;;;;;;5051557;28;20104;-78
2022/03/21 06:18:16;;;;;;;2.85;2.65;;;;;;;;;;5052527;28;20036;-78
2022/03/21 06:20:42;;;;;;;2.95;2.75;;;;;;;;;;5050633;28;20021;-79
2022/03/21 06:23:08;;;;;;;0.98;0.95;;;;;;;;;;5054065;28;20048;-79
2022/03/21 06:25:37;;;;;;;2.35;1.88;;;;;;;;;;5054916;28;20170;-79
2022/03/21 06:28:05;;;;;;;3.58;2.88;;;;;;;;;;5052579;28;20029;-79
2022/03/21 06:30:31;;;;;;;2.10;2.00;;;;;;;;;;5053877;28;20108;-78
2022/03/21 06:32:58;;;;;;;2.60;2.35;;;;;;;;;;5052495;28;20104;-79
2022/03/21 06:35:26;;;;;;;5.30;2.78;;;;;;;;;;5053997;28;20033;-79
2022/03/21 06:37:51;;;;;;;4.65;3.15;;;;;;;;;;5052047;28;20100;-78
2022/03/21 06:40:17;;;;;;;2.40;1.45;;;;;;;;;;5053461;28;20112;-78
2022/03/21 06:42:44;;;;;;;3.60;2.20;;;;;;;;;;5054173;28;20024;-79
2022/03/21 06:45:12;;;;;;;5.28;2.58;;;;;;;;;;5054228;28;20385;-79
2022/03/21 06:47:37;;;;;;;3.30;3.00;;;;;;;;;;5050929;28;20024;-79
2022/03/21 06:50:04;;;;;;;1.00;1.00;;;;;;;;;;5053419;28;20090;-79
2022/03/21 06:52:29;;;;;;;3.10;2.30;;;;;;;;;;5054532;28;20025;-78
2022/03/21 06:54:57;;;;;;;1.27;1.17;;;;;;;;;;5053696;28;20031;-78
2022/03/21 06:57:24;;;;;;;3.13;2.28;;;;;;;;;;5054213;28;20025;-80
2022/03/21 06:59:49;;;;;;;3.08;1.48;;;;;;;;;;5051133;28;20526;-79
2022/03/21 07:02:17;;;;;;;3.67;2.72;;;;;;;;;;5054104;28;20035;-79
2022/03/21 07:04:44;;;;;;;2.58;2.25;;;;;;;;;;5053489;28;20025;-77
2022/03/21 07:07:10;;;;;;;1.60;1.50;;;;;;;;;;5051201;28;20025;-78
2022/03/21 07:09:38;;;;;;;1.63;1.27;;;;;;;;;;5053757;28;20048;-77
2022/03/21 07:12:06;;;;;;;2.00;1.88;;;;;;;;;;5053105;28;20035;-78
2022/03/21 07:14:31;;;;;;;2.28;2.08;;;;;;;;;;5054069;28;20041;-78
2022/03/21 07:16:56;;;;;;;3.95;2.17;;;;;;;;;;5043392;28;20048;-79
2022/03/21 07:19:25;;;;;;;4.85;1.95;;;;;;;;;;5053587;28;20036;-79
2022/03/21 07:21:53;;;;;;;1.45;1.23;;;;;;;;;;5053955;28;20366;-80
2022/03/21 07:24:18;;;;;;;1.55;1.45;;;;;;;;;;5053271;28;20430;-77
2022/03/21 07:26:46;;;;;;;3.22;2.42;;;;;;;;;;5047481;28;20048;-80
2022/03/21 07:29:16;;;;;;;3.38;2.58;;;;;;;;;;5053491;28;20029;-77
2022/03/21 07:31:42;;;;;;;3.95;2.47;;;;;;;;;;5053418;28;20488;-78
2022/03/21 07:34:12;;;;;;;1.42;1.33;;;;;;;;;;5052953;28;20108;-77
2022/03/21 07:36:38;;;;;;;2.47;2.28;;;;;;;;;;5054434;28;20051;-78
2022/03/21 07:39:04;;;;;;;5.57;2.22;;;;;;;;;;5052768;28;20450;-77
2022/03/21 07:41:33;;;;;;;3.05;2.65;;;;;;;;;;5053238;28;20032;-78
2022/03/21 07:44:01;;;;;;;3.83;3.30;;;;;;;;;;5053131;28;20427;-77
2022/03/21 07:49:11;;;;;;;2.95;2.25;;;;;;;;;;5057977;28;20048;-77
2022/03/21 07:51:37;;;;;;;2.03;1.83;;;;;;;;;;5051717;28;20465;-78
2022/03/21 07:54:03;;;;;;;5.30;2.47;;;;;;;;;;5056656;28;20123;-77
2022/03/21 07:56:31;;;;;;;2.97;1.10;;;;;;;;;;5056171;28;20116;-77
2022/03/21 07:58:59;;;;;;;3.58;1.95;;;;;;;;;;5056785;28;20017;-78
2022/03/21 08:01:29;;;;;;;1.67;1.58;;;;;;;;;;5055976;28;20052;-78
2022/03/21 08:03:57;;;;;;;3.55;2.55;;;;;;;;;;5056919;28;20101;-78
2022/03/21 08:06:23;;;;;;;3.30;3.00;;;;;;;;;;5056850;28;20036;-78
2022/03/21 08:08:55;;;;;;;3.40;2.45;;;;;;;;;;5057119;28;20446;-76
2022/03/21 08:11:22;;;;;;;5.37;4.10;;;;;;;;;;5056619;28;20079;-79
2022/03/21 08:13:50;;;;;;;2.05;1.70;;;;;;;;;;5051107;28;20062;-77
2022/03/21 08:16:22;;;;;;;3.95;2.28;;;;;;;;;;5052009;28;20461;-79
2022/03/21 08:18:53;;;;;;;4.82;2.97;;;;;;;;;;5054169;28;20455;-78
2022/03/21 08:21:20;;;;;;;5.15;2.03;;;;;;;;;;5052962;28;20031;-78
2022/03/21 08:23:47;;;;;;;4.63;2.28;;;;;;;;;;5056737;28;20116;-78
2022/03/21 08:26:16;;;;;;;2.67;2.28;;;;;;;;;;5053871;28;20032;-78
2022/03/21 08:28:47;;;;;;;2.25;2.05;;;;;;;;;;5057126;28;20017;-80
2022/03/21 08:31:15;;;;;;;3.25;2.50;;;;;;;;;;5055890;28;20112;-78
2022/03/21 08:33:41;;;;;;;5.00;2.75;;;;;;;;;;5056323;28;20029;-78
2022/03/21 08:36:12;;;;;;;2.50;2.30;;;;;;;;;;5056947;28;20036;-78
2022/03/21 08:38:38;;;;;;;2.13;1.95;;;;;;;;;;5056486;28;20056;-77
2022/03/21 08:41:03;;;;;;;6.93;2.63;;;;;;;;;;5055728;28;20025;-78
2022/03/21 08:43:29;;;;;;;3.40;2.22;;;;;;;;;;5056348;28;20484;-77
2022/03/21 08:45:55;;;;;;;5.05;2.95;;;;;;;;;;5056721;28;20044;-78
2022/03/21 08:49:23;;;;;;;3.60;2.90;;;;;;;;;;5057779;28;20430;-78
2022/03/21 08:51:06;;;;;;;2.88;1.85;;;;;;;;;;5054381;28;20357;-78
2022/03/21 08:53:34;;;;;;;2.75;1.75;;;;;;;;;;5050474;28;20083;-78
2022/03/21 08:56:01;;;;;;;3.13;2.70;;;;;;;;;;5053794;28;20020;-77
2022/03/21 08:58:29;;;;;;;5.45;2.47;;;;;;;;;;5051604;28;20104;-77
2022/03/21 09:00:54;;;;;;;6.75;2.90;;;;;;;;;;5054372;28;20032;-79
2022/03/21 09:03:22;;;;;;;2.53;1.33;;;;;;;;;;5056065;28;20410;-78
2022/03/21 09:05:49;;;;;;;4.57;3.25;;;;;;;;;;5054457;28;20021;-76
2022/03/21 09:08:17;;;;;;;3.50;2.95;;;;;;;;;;5055957;28;20355;-77
2022/03/21 09:10:42;;;;;;;3.70;2.72;;;;;;;;;;5053718;28;20101;-78
2022/03/21 09:13:13;;;;;;;4.53;3.35;;;;;;;;;;5050410;28;20611;-77
2022/03/21 09:15:38;;;;;;;5.68;3.20;;;;;;;;;;5050404;28;20076;-77
2022/03/21 09:18:06;;;;;;;3.67;3.03;;;;;;;;;;5051686;28;20560;-79
2022/03/21 09:20:33;;;;;;;4.53;3.20;;;;;;;;;;5050073;28;20025;-76
2022/03/21 09:22:59;;;;;;;7.85;3.58;;;;;;;;;;5049266;28;20025;-78
2022/03/21 09:25:24;;;;;;;5.60;3.38;;;;;;;;;;5056319;28;20473;-77
2022/03/21 09:27:52;;;;;;;5.70;3.25;;;;;;;;;;5053329;28;20040;-76
2022/03/21 09:30:17;;;;;;;4.07;2.22;;;;;;;;;;5053446;28;20064;-76
2022/03/21 09:32:43;;;;;;;5.57;3.28;;;;;;;;;;5048507;28;20106;-78
2022/03/21 09:35:13;;;;;;;3.03;2.38;;;;;;;;;;5053975;28;20039;-77
2022/03/21 09:37:41;;;;;;;6.85;3.00;;;;;;;;;;5054753;28;20021;-76
2022/03/21 09:40:09;;;;;;;3.33;3.03;;;;;;;;;;5050546;28;20086;-77
2022/03/21 09:42:35;;;;;;;4.78;2.38;;;;;;;;;;5051545;28;20378;-78
2022/03/21 09:45:03;;;;;;;1.98;1.65;;;;;;;;;;5053822;28;20098;-77
2022/03/21 09:50:14;;;;;;;18.23;2.90;;;;;;;;;;5054034;28;20125;-77
2022/03/21 09:52:41;;;;;;;3.25;1.90;;;;;;;;;;5054696;28;20044;-77
2022/03/21 09:55:07;;;;;;;6.85;3.40;;;;;;;;;;5036788;28;20035;-77
2022/03/21 09:57:35;;;;;;;4.05;2.90;;;;;;;;;;5053140;28;20028;-78
2022/03/21 10:00:01;;;;;;;4.28;3.00;;;;;;;;;;5054245;28;20032;-77
2022/03/21 10:02:26;;;;;;;2.53;1.85;;;;;;;;;;5053449;28;20028;-75
2022/03/21 10:04:55;;;;;;;4.15;2.42;;;;;;;;;;5054937;28;20037;-77
2022/03/21 10:07:27;;;;;;;2.78;2.45;;;;;;;;;;5052208;28;20104;-77
2022/03/21 10:10:06;;;;;;;2.55;2.30;;;;;;;;;;5049727;28;20090;-76
2022/03/21 10:12:33;;;;;;;3.85;2.53;;;;;;;;;;5051258;28;20170;-74
2022/03/21 10:15:04;;;;;;;6.53;4.25;;;;;;;;;;5052959;28;20052;-74
2022/03/21 10:17:29;;;;;;;5.05;2.70;;;;;;;;;;5051721;28;20032;-76
2022/03/21 10:19:55;;;;;;;2.60;1.85;;;;;;;;;;5050735;28;20026;-76
2022/03/21 10:22:22;;;;;;;3.88;2.65;;;;;;;;;;5049843;28;20028;-74
2022/03/21 10:24:49;;;;;;;9.70;3.15;;;;;;;;;;5052003;28;20036;-76
2022/03/21 10:27:34;;;;;;;5.15;3.08;;;;;;;;;;5052222;28;20031;-77
2022/03/21 10:30:28;;;;;;;6.90;3.13;;;;;;;;;;5052709;28;20048;-79
2022/03/21 10:32:55;;;;;;;5.10;4.20;;;;;;;;;;5049913;28;20029;-80
2022/03/21 10:35:23;;;;;;;3.58;2.72;;;;;;;;;;5053540;28;20033;-81
2022/03/21 10:37:49;;;;;;;2.17;1.85;;;;;;;;;;5052701;28;20087;-79
2022/03/21 10:40:26;;;;;;;8.55;3.40;;;;;;;;;;5053470;28;20452;-79
2022/03/21 10:43:03;;;;;;;2.25;1.77;;;;;;;;;;5050942;28;20039;-83
2022/03/21 10:45:35;;;;;;;8.50;3.83;;;;;;;;;;5053568;28;20052;-81
2022/03/21 10:48:01;;;;;;;4.18;2.83;;;;;;;;;;5048111;28;20029;-83
2022/03/21 10:50:28;;;;;;;4.82;2.88;;;;;;;;;;5053390;28;20422;-80
2022/03/21 10:53:07;;;;;;;60.97;10.93;;;;;;;;;;5047879;28;20073;-83
2022/03/21 10:55:35;;;;;;;5.22;3.28;;;;;;;;;;5051599;28;20039;-79
2022/03/21 10:58:05;;;;;;;4.07;3.28;;;;;;;;;;5053283;28;20284;-80
2022/03/21 11:00:32;;;;;;;5.25;2.78;;;;;;;;;;5051350;28;20029;-81
2022/03/21 11:03:06;;;;;;;4.85;3.28;;;;;;;;;;5052642;28;20347;-79
2022/03/21 11:05:38;;;;;;;12.50;2.63;;;;;;;;;;5052803;28;20434;-80
2022/03/21 11:08:05;;;;;;;2.08;1.67;;;;;;;;;;5049284;28;20094;-79
2022/03/21 11:10:33;;;;;;;6.88;3.55;;;;;;;;;;5049327;28;20028;-78
2022/03/21 11:13:01;;;;;;;3.67;2.55;;;;;;;;;;5054139;28;20029;-78
2022/03/21 11:15:29;;;;;;;2.90;2.10;;;;;;;;;;5052240;28;20016;-79
2022/03/21 11:17:57;;;;;;;1.75;1.42;;;;;;;;;;5052897;28;20469;-77
2022/03/21 11:20:23;;;;;;;2.45;2.25;;;;;;;;;;5052201;28;20025;-78
2022/03/21 11:22:53;;;;;;;4.18;2.10;;;;;;;;;;5051999;28;20021;-77
2022/03/21 11:25:21;;;;;;;3.03;2.17;;;;;;;;;;5053122;28;20021;-78
2022/03/21 11:27:53;;;;;;;3.30;1.98;;;;;;;;;;5051654;28;20067;-77
2022/03/21 11:30:21;;;;;;;5.68;3.47;;;;;;;;;;5053110;28;20036;-78
2022/03/21 11:33:08;;;;;;;4.75;2.15;;;;;;;;;;5052834;28;20020;-78
2022/03/21 11:35:34;;;;;;;6.28;3.30;;;;;;;;;;5053281;28;20063;-79
2022/03/21 11:38:27;;;;;;;4.47;3.50;;;;;;;;;;5048886;28;20048;-77
2022/03/21 11:41:10;;;;;;;2.85;2.38;;;;;;;;;;5051615;28;20048;-77
2022/03/21 11:43:38;;;;;;;2.60;2.15;;;;;;;;;;5051371;28;20033;-78
2022/03/21 11:46:20;;;;;;;4.05;3.25;;;;;;;;;;5046788;28;20033;-80
2022/03/21 11:48:45;;;;;;;;;;;;;;;;;;5050155;28;20021;-78
2022/03/21 11:51:16;;;;;;;3.78;1.95;;;;;;;;;;5053619;28;19919;-75
2022/03/21 11:53:53;;;;;;;2.28;1.75;;;;;;;;;;5050611;28;20082;-77
2022/03/21 11:56:43;;;;;;;3.95;2.47;;;;;;;;;;5045586;28;20037;-78
2022/03/21 11:59:20;;;;;;;2.83;2.13;;;;;;;;;;5050985;28;20031;-76
2022/03/21 12:01:45;;;;;;;3.88;1.80;;;;;;;;;;5050532;28;20134;-75
2022/03/21 12:04:31;;;;;;;6.95;3.08;;;;;;;;;;5047469;28;20474;-77
2022/03/21 12:07:01;;;;;;;2.47;2.03;;;;;;;;;;5052181;28;20037;-77
2022/03/21 12:09:44;;;;;;;3.00;2.10;;;;;;;;;;5050856;28;20461;-76
2022/03/21 12:12:11;;;;;;;2.75;2.38;;;;;;;;;;5051302;28;20036;-76
2022/03/21 12:14:56;;;;;;;2.33;2.13;;;;;;;;;;5039054;28;20018;-76
2022/03/21 12:17:32;;;;;;;2.67;2.40;;;;;;;;;;5058020;28;20047;-77
2022/03/21 12:20:11;;;;;;;2.35;1.73;;;;;;;;;;5046829;28;20033;-76
2022/03/21 12:22:37;;;;;;;2.28;1.67;;;;;;;;;;5051709;28;20017;-76
2022/03/21 12:25:51;;;;;;;2.60;1.52;;;;;;;;;;5052978;28;20052;-76
2022/03/21 12:28:16;;;;;;;3.58;1.75;;;;;;;;;;5056063;28;20024;-74
2022/03/21 12:30:41;;;;;;;4.43;2.50;;;;;;;;;;5055443;28;20036;-74
2022/03/21 12:33:09;;;;;;;2.30;2.10;;;;;;;;;;5056226;28;20082;-75
2022/03/21 12:35:35;;;;;;;3.33;2.30;;;;;;;;;;5060765;28;20398;-74
2022/03/21 12:38:12;;;;;;;2.30;1.90;;;;;;;;;;5055233;28;20056;-73
2022/03/21 12:40:38;;;;;;;0.95;0.93;;;;;;;;;;5051142;28;20461;-74
2022/03/21 12:43:06;;;;;;;1.05;1.05;;;;;;;;;;5054462;28;20037;-73
2022/03/21 12:45:34;;;;;;;2.80;1.30;;;;;;;;;;5048481;28;20063;-74
2022/03/21 12:48:05;;;;;;;1.17;0.98;;;;;;;;;;5052240;28;20093;-73
2022/03/21 12:50:31;;;;;;;0.98;0.98;;;;;;;;;;5050033;28;20483;-74
2022/03/21 12:53:04;;;;;;;1.85;0.77;;;;;;;;;;5055545;28;20060;-73
2022/03/21 12:55:29;;;;;;;3.67;1.25;;;;;;;;;;5053481;28;20032;-73
2022/03/21 12:57:59;;;;;;;2.50;1.58;;;;;;;;;;5055202;28;20032;-72
2022/03/21 13:00:26;;;;;;;6.57;1.45;;;;;;;;;;5059034;28;20304;-72
2022/03/21 13:02:58;;;;;;;3.42;2.00;;;;;;;;;;5050556;28;20028;-74
2022/03/21 13:10:54;;;;;;;1.90;1.17;;;;;;;;;;5051941;28;20480;-75
2022/03/21 13:13:23;;;;;;;7.10;1.77;;;;;;;;;;5057330;28;20033;-73
2022/03/21 13:16:03;;;;;;;2.13;1.73;;;;;;;;;;5055094;28;20059;-73
2022/03/21 13:18:41;;;;;;;1.60;1.23;;;;;;;;;;5049744;28;20096;-72
2022/03/21 13:21:09;;;;;;;2.28;1.58;;;;;;;;;;5055966;28;20025;-73
2022/03/21 13:23:34;;;;;;;4.65;2.53;;;;;;;;;;5054792;28;20207;-73
2022/03/21 13:26:17;;;;;;;3.17;1.33;;;;;;;;;;5055583;28;20106;-73
2022/03/21 13:29:07;;;;;;;3.05;1.77;;;;;;;;;;5055515;28;20021;-73
2022/03/21 13:31:33;;;;;;;1.35;1.00;;;;;;;;;;5052974;28;20112;-73
2022/03/21 13:34:03;;;;;;;1.35;1.10;;;;;;;;;;5055633;28;20493;-73
2022/03/21 13:36:29;;;;;;;0.98;0.82;;;;;;;;;;5055432;28;20036;-73
2022/03/21 13:39:22;;;;;;;1.30;1.20;;;;;;;;;;5048642;28;20033;-72
2022/03/21 13:41:54;;;;;;;0.70;0.70;;;;;;;;;;5050862;28;20021;-73
2022/03/21 13:44:21;;;;;;;1.60;0.75;;;;;;;;;;5051678;28;20346;-72
2022/03/21 13:47:05;;;;;;;3.83;1.15;;;;;;;;;;5049323;28;20044;-73
2022/03/21 13:49:53;;;;;;;1.08;0.98;;;;;;;;;;5049244;28;20052;-73
2022/03/21 13:52:51;;;;;;;2.15;1.48;;;;;;;;;;5057603;28;20353;-73
2022/03/21 13:55:25;;;;;;;5.15;1.13;;;;;;;;;;5049206;28;20041;-73
2022/03/21 13:57:55;;;;;;;7.97;2.67;;;;;;;;;;5054221;28;20033;-73
2022/03/21 14:00:27;;;;;;;1.48;1.38;;;;;;;;;;5053990;28;20036;-73
2022/03/21 14:02:53;;;;;;;4.43;1.30;;;;;;;;;;5058864;28;20024;-73
2022/03/21 14:05:21;;;;;;;2.22;1.45;;;;;;;;;;5054952;28;20079;-73
2022/03/21 14:07:51;;;;;;;1.42;1.20;;;;;;;;;;5054793;28;20017;-73
2022/03/21 14:10:22;;;;;;;0.77;0.70;;;;;;;;;;5052891;28;20032;-73
2022/03/21 14:12:53;;;;;;;3.20;1.67;;;;;;;;;;5037641;28;20187;-73
2022/03/21 14:15:27;;;;;;;1.38;0.98;;;;;;;;;;5050385;28;20100;-72
2022/03/21 14:17:52;;;;;;;2.08;1.75;;;;;;;;;;5053046;28;20056;-72
2022/03/21 14:20:20;;;;;;;1.20;1.13;;;;;;;;;;5051090;28;20056;-72
2022/03/21 14:22:49;;;;;;;0.63;0.63;;;;;;;;;;5033921;28;20056;-73
2022/03/21 14:27:59;;;;;;;0.75;0.60;;;;;;;;;;5054630;28;20039;-73
2022/03/21 14:30:25;;;;;;;0.47;0.47;;;;;;;;;;5052600;28;20560;-73
2022/03/21 14:32:50;;;;;;;0.70;0.70;;;;;;;;;;5045807;28;20040;-72
2022/03/21 14:35:15;;;;;;;1.83;1.70;;;;;;;;;;5051912;28;20021;-73
2022/03/21 14:37:41;;;;;;;1.17;0.82;;;;;;;;;;5073075;28;20442;-73
2022/03/21 14:40:07;;;;;;;0.50;0.45;;;;;;;;;;5050901;28;20506;-73
2022/03/21 14:42:32;;;;;;;1.92;1.33;;;;;;;;;;5053654;28;20059;-73
2022/03/21 14:44:57;;;;;;;0.75;0.50;;;;;;;;;;5053577;28;20076;-73
2022/03/21 14:47:23;;;;;;;1.20;0.95;;;;;;;;;;5052138;28;20067;-74
2022/03/21 14:49:48;;;;;;;1.52;1.42;;;;;;;;;;5052673;28;20021;-73
2022/03/21 14:52:14;;;;;;;2.95;1.63;;;;;;;;;;5051998;28;20055;-73
2022/03/21 14:54:39;;;;;;;2.63;1.63;;;;;;;;;;5052831;28;20028;-73
2022/03/21 14:57:07;;;;;;;4.63;1.55;;;;;;;;;;5054329;28;20025;-74
2022/03/21 14:59:32;;;;;;;1.38;1.27;;;;;;;;;;5049563;28;20050;-73
2022/03/21 15:02:00;;;;;;;1.10;1.00;;;;;;;;;;5052249;28;20479;-74
2022/03/21 15:04:26;;;;;;;1.65;1.55;;;;;;;;;;5047919;28;20036;-74
2022/03/21 15:06:53;;;;;;;1.25;1.13;;;;;;;;;;5050122;28;20028;-76
2022/03/21 15:09:21;;;;;;;1.13;0.98;;;;;;;;;;5054171;28;20048;-76
2022/03/21 15:11:47;;;;;;;0.55;0.55;;;;;;;;;;5049442;28;20029;-74
2022/03/21 15:14:12;;;;;;;2.63;1.83;;;;;;;;;;5049900;28;20365;-76
2022/03/21 15:16:40;;;;;;;1.45;1.25;;;;;;;;;;5056138;28;20024;-76
2022/03/21 15:19:07;;;;;;;2.65;1.33;;;;;;;;;;5053027;28;20033;-75
2022/03/21 15:21:35;;;;;;;1.63;1.52;;;;;;;;;;5052751;28;20048;-76
2022/03/21 15:24:00;;;;;;;1.48;1.38;;;;;;;;;;5053721;28;20099;-76